Tropical Cyclones
[Index]
Main Index Home Page Stock Weather Photos Extreme Storms Discussion Storm News and Storm Chasing Reports Tropical Cyclones / Hurricanes / Typhoons Weather Data and Links Wild Fires / Bushfires Weather Observation Techniques Weather Picture Catalogue Tornado Pictures and Reports Stock Video Footage and DVDs for sale
Season 2009-2010 Tropical Cyclone TOMAS Track Map
Season 2009-2010 Summaries (Operational Data): [AU] [SIO] [SPAC] [SH]
<<- Previous TC | 2009-2010 Season | Next TC ->>

click for intensity scale information  Lat/long Grid: Show Hide

 Date Labels: Show Hide

Operational Tropical Cyclone Data : JTWC Advisories

Name: TOMAS
Number: 1019

09 Mar 2010 18:00 UTC to 18 Mar 2010 12:00 UTC

    date/time    lat    long     hPa   cat  kts
2010-03-09 18   13.5   171.0W   1006         20          
2010-03-10 06   11.5   170.0W   1005         20          
2010-03-10 18   12.5   174.2W   1002         20          
2010-03-11 00   11.0   173.9W   1002         25          
2010-03-11 06   11.0   174.7W   1002         25          
2010-03-11 12   10.9   175.5W    999         30          
2010-03-11 18   10.7   176.0W    999         30          
2010-03-12 00   10.6   176.3W    995    1    35          
2010-03-12 06   11.2   176.5W    992    1    40          
2010-03-12 12   11.6   177.6W    985    2    50          
2010-03-12 18   11.1   178.0W    985    2    50          
2010-03-13 00   11.5   178.4W    985    2    55          
2010-03-13 06   11.9   178.7W    980    2    55          
2010-03-13 12   12.3   179.1W    980    2    55          
2010-03-13 18   12.6   179.0W    975    2    60          
2010-03-14 00   13.5   179.2W    972    3    65          
2010-03-14 06   13.8   179.5W    960    3    75          
2010-03-14 12   14.3   179.7W    955    3    80          
2010-03-14 18   15.2   179.5W    940    4    90          
2010-03-15 00   15.5   179.4W    930    4    95          
2010-03-15 06   16.1   179.4W    930    4    95          
2010-03-15 12   16.7   179.6W    930    4    95          
2010-03-15 18   17.5   179.5W    930    4    95          
2010-03-16 00   18.6   179.5W    940    4    90          
2010-03-16 06   19.9   179.3W    950    3    80          
2010-03-16 12   21.2   178.6W    950    3    80          
2010-03-16 18   22.8   177.9W    965    3    75          
2010-03-17 00   25.0   176.5W    965    3    75          
2010-03-17 06   27.5   174.0W    965    3    70          
2010-03-17 12   30.0   171.0W    975    2    60          
2010-03-17 18   32.0   169.0W    989    1    40          
2010-03-18 00   35.0   164.0W    987    1    40          
2010-03-18 06   39.0   160.0W    976    2    55          
2010-03-18 12   44.0   155.0W    960    2    55          
Winds are 10-min average.

Tropical cyclone tracks developed by Michael Bath using operational warnings and advisories and Google Maps.


[Australian Severe Weather index] [Copyright Notice] [Email Contacts] [Search This Site] [Privacy Policy]
Document: tropical_cyclone_tomas.htm Updated: 2 May 2017